createdAt,value
2022-08-17T00:02:26.140Z,74777.41
2022-08-17T00:04:54.748Z,74785.09
2022-08-17T00:07:22.003Z,74808.22
2022-08-17T00:09:48.819Z,74814.00
2022-08-17T00:12:42.249Z,74825.53
2022-08-17T00:15:05.876Z,74825.53
2022-08-17T00:17:36.077Z,74821.69
2022-08-17T00:20:04.271Z,74817.84
2022-08-17T00:22:35.705Z,74819.78
2022-08-17T00:25:12.229Z,74827.47
2022-08-17T00:27:39.518Z,74837.09
2022-08-17T00:30:10.241Z,74850.59
2022-08-17T00:33:12.093Z,74867.91
2022-08-17T00:35:33.125Z,74867.91
2022-08-17T00:38:00.092Z,74869.84
2022-08-17T00:40:27.533Z,74867.91
2022-08-17T00:43:20.376Z,74866.00
2022-08-17T00:45:48.609Z,74879.47
2022-08-17T00:48:29.531Z,74883.31
2022-08-17T00:51:00.134Z,74887.19
2022-08-17T00:53:29.424Z,74889.09
2022-08-17T00:55:58.570Z,74891.03
2022-08-17T00:58:36.369Z,74889.09
2022-08-17T01:01:05.446Z,74891.03
2022-08-17T01:03:33.583Z,74883.31
2022-08-17T01:06:02.609Z,74885.25
2022-08-17T01:08:31.271Z,74881.41
2022-08-17T01:11:05.423Z,74881.41
2022-08-17T01:13:41.064Z,74885.25
2022-08-17T01:16:20.155Z,74875.63
2022-08-17T01:18:50.708Z,74883.31
2022-08-17T01:21:29.065Z,74879.47
2022-08-17T01:23:56.492Z,74879.47
2022-08-17T01:26:23.682Z,74883.31
2022-08-17T01:28:54.457Z,74887.19
2022-08-17T01:31:23.028Z,74887.19
2022-08-17T01:33:49.736Z,74891.03
2022-08-17T01:36:16.454Z,74892.97
2022-08-17T01:38:43.690Z,74896.81
2022-08-17T01:41:14.507Z,74900.66
2022-08-17T01:43:51.088Z,74898.72
2022-08-17T01:46:27.221Z,74902.59
2022-08-17T01:48:56.369Z,74898.72
2022-08-17T01:51:25.965Z,74894.88
2022-08-17T01:53:58.319Z,74908.38
2022-08-17T01:56:26.941Z,74904.50
2022-08-17T01:58:54.284Z,74906.44
2022-08-17T02:01:25.002Z,74902.59
2022-08-17T02:03:56.210Z,74902.59
2022-08-17T02:06:28.326Z,74904.50
2022-08-17T02:09:03.270Z,74898.72
2022-08-17T02:11:33.537Z,74908.38
2022-08-17T02:14:03.279Z,74925.69
2022-08-17T02:16:37.063Z,74937.25
2022-08-17T02:19:10.826Z,74937.25
2022-08-17T02:21:38.897Z,74952.66
2022-08-17T02:24:08.301Z,74970.00
2022-08-17T02:26:35.307Z,74977.72
2022-08-17T02:29:04.042Z,74981.56
2022-08-17T02:31:31.324Z,74987.34
2022-08-17T02:34:03.951Z,75002.75
2022-08-17T02:36:34.197Z,75004.66
2022-08-17T02:39:03.420Z,75006.59
2022-08-17T02:41:30.563Z,75016.22
2022-08-17T02:43:57.601Z,75018.16
2022-08-17T02:46:24.508Z,75020.09
2022-08-17T02:48:51.213Z,75022.00
2022-08-17T02:51:18.745Z,75027.78
2022-08-17T02:53:45.669Z,75029.72
2022-08-17T02:56:12.482Z,75029.72
2022-08-17T02:58:39.307Z,75020.09
2022-08-17T03:01:08.158Z,75014.31
2022-08-17T03:03:36.261Z,75014.31
2022-08-17T03:06:04.100Z,75006.59
2022-08-17T03:08:31.170Z,75002.75
2022-08-17T03:10:57.909Z,74998.91
2022-08-17T03:13:24.778Z,74995.03
2022-08-17T03:15:51.634Z,75000.81
2022-08-17T03:18:25.272Z,75002.75
2022-08-17T03:21:01.416Z,75006.59
2022-08-17T03:23:29.572Z,75006.59
2022-08-17T03:25:58.045Z,75016.22
2022-08-17T03:28:25.539Z,75020.09
2022-08-17T03:30:52.385Z,75029.72
2022-08-17T03:33:20.274Z,75029.72
2022-08-17T03:35:47.201Z,75041.28
2022-08-17T03:38:15.129Z,75052.81
2022-08-17T03:40:57.381Z,75052.81
2022-08-17T03:43:30.813Z,75056.69
2022-08-17T03:46:28.178Z,75060.53
2022-08-17T03:49:24.748Z,75066.31
2022-08-17T03:52:11.270Z,75068.25
2022-08-17T03:54:57.103Z,75060.53
2022-08-17T03:57:24.739Z,75064.38
2022-08-17T03:59:52.221Z,75072.09
2022-08-17T04:02:29.731Z,75070.16
2022-08-17T04:04:57.059Z,75060.53
2022-08-17T04:07:28.598Z,75054.75
2022-08-17T04:09:55.709Z,75022.00
2022-08-17T04:12:24.152Z,74998.91
2022-08-17T04:14:53.679Z,74991.19
2022-08-17T04:17:26.518Z,74918.00
2022-08-17T04:19:54.027Z,74808.22
2022-08-17T04:22:32.708Z,74725.41
2022-08-17T04:25:15.141Z,74563.63
2022-08-17T04:27:42.035Z,74502.00
2022-08-17T04:30:09.346Z,74444.22
2022-08-17T04:33:04.149Z,74282.44
2022-08-17T04:35:37.706Z,74224.69
2022-08-17T04:38:05.100Z,74136.09
2022-08-17T04:40:50.539Z,74070.63
2022-08-17T04:43:20.596Z,73930.06
2022-08-17T04:45:56.363Z,73935.84
2022-08-17T04:48:35.812Z,73854.97
2022-08-17T04:51:07.240Z,73679.75
2022-08-17T04:53:34.079Z,73527.63
2022-08-17T04:56:01.054Z,73454.47
2022-08-17T04:58:28.388Z,73377.47
2022-08-17T05:00:55.275Z,73261.97
2022-08-17T05:03:22.217Z,73146.44
2022-08-17T05:05:51.838Z,73265.81
2022-08-17T05:08:20.320Z,73263.88
2022-08-17T05:10:47.722Z,73240.78
2022-08-17T05:13:18.001Z,73132.97
2022-08-17T05:15:49.176Z,73057.91
2022-08-17T05:18:17.525Z,72957.78
2022-08-17T05:20:45.264Z,72857.69
2022-08-17T05:23:14.808Z,72773.00
2022-08-17T05:25:46.762Z,72923.16
2022-08-17T05:28:17.254Z,72980.91
2022-08-17T05:30:46.273Z,73104.09
2022-08-17T05:33:25.642Z,72996.28
2022-08-17T05:35:54.716Z,73188.81
2022-08-17T05:38:23.744Z,73188.81
2022-08-17T05:40:51.192Z,72861.53
2022-08-17T05:43:30.787Z,73169.56
2022-08-17T05:46:13.339Z,73150.28
2022-08-17T05:48:46.268Z,73215.75
2022-08-17T05:51:26.908Z,73364.00
2022-08-17T05:54:23.923Z,73310.09
2022-08-17T05:56:56.561Z,73138.75
2022-08-17T05:59:45.103Z,73358.22
2022-08-17T06:02:23.011Z,73267.72
2022-08-17T06:05:11.248Z,73123.34
2022-08-17T06:07:41.040Z,73132.97
2022-08-17T06:10:25.675Z,73292.75
2022-08-17T06:13:15.954Z,72967.41
2022-08-17T06:16:32.930Z,72765.31
2022-08-17T06:19:01.413Z,73019.41
2022-08-17T06:21:34.319Z,72861.53
2022-08-17T06:24:21.723Z,72757.59
2022-08-17T06:26:50.321Z,72661.34
2022-08-17T06:29:27.076Z,72938.53
2022-08-17T06:31:53.894Z,73061.75
2022-08-17T06:34:20.894Z,73121.41
2022-08-17T06:37:21.259Z,72869.25
2022-08-17T06:39:50.837Z,72580.50
2022-08-17T06:42:54.959Z,72530.47
2022-08-17T06:45:43.898Z,72619.00
2022-08-17T06:48:13.645Z,72672.91
2022-08-17T06:50:47.323Z,72696.00
2022-08-17T06:53:23.759Z,72682.53
2022-08-17T06:56:08.745Z,72803.78
2022-08-17T06:58:38.804Z,72680.59
2022-08-17T07:01:16.447Z,72484.28
2022-08-17T07:03:55.535Z,72567.03
2022-08-17T07:06:26.528Z,72653.66
2022-08-17T07:09:01.294Z,72846.16
2022-08-17T07:11:43.645Z,72936.63
2022-08-17T07:14:44.666Z,72738.34
2022-08-17T07:17:15.185Z,72653.66
2022-08-17T07:19:45.519Z,72669.06
2022-08-17T07:22:18.268Z,72605.53
2022-08-17T07:24:59.606Z,72580.50
2022-08-17T07:27:27.782Z,72424.63
2022-08-17T07:29:59.068Z,72280.25
2022-08-17T07:32:53.850Z,72472.72
2022-08-17T07:35:37.968Z,72601.69
2022-08-17T07:38:24.168Z,72726.81
2022-08-17T07:41:03.015Z,72630.56
2022-08-17T07:43:39.245Z,72684.47
2022-08-17T07:46:46.113Z,72561.25
2022-08-17T07:49:12.816Z,72676.75
2022-08-17T07:51:45.823Z,72896.19
2022-08-17T07:54:14.794Z,72923.16
2022-08-17T07:56:44.081Z,72790.31
2022-08-17T07:59:24.176Z,72622.88
2022-08-17T08:01:58.055Z,72655.59
2022-08-17T08:05:00.135Z,72622.88
2022-08-17T08:07:21.345Z,72545.88
2022-08-17T08:10:11.780Z,72491.97
2022-08-17T08:12:45.499Z,72413.06
2022-08-17T08:15:33.308Z,72430.38
2022-08-17T08:18:04.001Z,72503.53
2022-08-17T08:20:52.674Z,72674.84
2022-08-17T08:23:50.746Z,72688.31
2022-08-17T08:26:23.692Z,72871.16
2022-08-17T08:29:12.567Z,72846.16
2022-08-17T08:31:51.453Z,72840.38
2022-08-17T08:34:54.748Z,72961.66
2022-08-17T08:37:42.870Z,72892.34
2022-08-17T08:40:15.761Z,72911.59
2022-08-17T08:42:56.500Z,73100.25
2022-08-17T08:45:32.950Z,72986.66
2022-08-17T08:48:55.794Z,72915.44
2022-08-17T08:51:35.874Z,72919.28
2022-08-17T08:54:14.653Z,72900.03
2022-08-17T08:57:23.095Z,72853.84
2022-08-17T09:00:08.162Z,72892.34
2022-08-17T09:02:40.947Z,72817.28
2022-08-17T09:05:44.525Z,72771.06
2022-08-17T09:08:57.157Z,72930.84
2022-08-17T09:12:01.363Z,72901.97
2022-08-17T09:14:43.218Z,72923.16
2022-08-17T09:17:31.763Z,72952.03
2022-08-17T09:20:28.286Z,72975.13
2022-08-17T09:23:15.381Z,72878.88
2022-08-17T09:26:11.593Z,72871.16
2022-08-17T09:28:42.687Z,72832.66
2022-08-17T09:31:20.313Z,72884.66
2022-08-17T09:33:49.074Z,72857.69
2022-08-17T09:36:23.187Z,72824.97
2022-08-17T09:39:02.843Z,72869.25
2022-08-17T09:41:48.966Z,72878.88
2022-08-17T09:44:23.679Z,72869.25
2022-08-17T09:47:00.255Z,72882.72
2022-08-17T09:49:56.036Z,72867.31
2022-08-17T09:52:28.811Z,72911.59
2022-08-17T09:54:57.875Z,72863.47
2022-08-17T09:58:11.382Z,72819.19
2022-08-17T10:00:46.900Z,72765.31
2022-08-17T10:03:49.135Z,72900.03
2022-08-17T10:06:24.508Z,72819.19
2022-08-17T10:08:58.512Z,72903.91
2022-08-17T10:12:00.714Z,72840.38
2022-08-17T10:14:53.620Z,72846.16
2022-08-17T10:17:21.942Z,72880.78
2022-08-17T10:20:11.865Z,72836.53
2022-08-17T10:23:04.583Z,72846.16
2022-08-17T10:25:55.768Z,72830.75
2022-08-17T10:28:29.696Z,72796.09
2022-08-17T10:31:30.938Z,72844.22
2022-08-17T10:34:06.994Z,72780.69
2022-08-17T10:36:55.349Z,72805.72
2022-08-17T10:39:52.739Z,72896.19
2022-08-17T10:42:36.178Z,72936.63
2022-08-17T10:45:14.540Z,72901.97
2022-08-17T10:48:07.052Z,72938.53
2022-08-17T10:50:58.317Z,72905.81
2022-08-17T10:53:43.690Z,72865.41
2022-08-17T10:56:13.582Z,72798.03
2022-08-17T10:58:59.895Z,72846.16
2022-08-17T11:01:32.924Z,72796.09
2022-08-17T11:04:18.542Z,72769.16
2022-08-17T11:07:02.433Z,72742.19
2022-08-17T11:10:01.031Z,72732.56
2022-08-17T11:13:06.733Z,72724.88
2022-08-17T11:15:58.834Z,72713.31
2022-08-17T11:18:52.624Z,72690.22
2022-08-17T11:21:39.854Z,72721.03
2022-08-17T11:24:28.509Z,72696.00
2022-08-17T11:27:23.552Z,72692.16
2022-08-17T11:30:01.895Z,72734.50
2022-08-17T11:32:47.500Z,72742.19
2022-08-17T11:35:21.129Z,72799.94
2022-08-17T11:37:59.066Z,72826.91
2022-08-17T11:41:03.454Z,72834.59
2022-08-17T11:43:55.654Z,72801.88
2022-08-17T11:47:08.888Z,72753.75
2022-08-17T11:50:00.664Z,72755.69
2022-08-17T11:52:47.378Z,72753.75
2022-08-17T11:55:44.739Z,72759.53
2022-08-17T11:58:30.098Z,72715.25
2022-08-17T12:01:01.105Z,72717.19
2022-08-17T12:03:31.822Z,72684.47
2022-08-17T12:06:19.509Z,72819.19
2022-08-17T12:08:55.839Z,72784.56
2022-08-17T12:11:57.775Z,72763.38
2022-08-17T12:14:45.445Z,72734.50
2022-08-17T12:17:40.555Z,72715.25
2022-08-17T12:20:31.297Z,72711.41
2022-08-17T12:23:12.037Z,72719.09
2022-08-17T12:25:58.388Z,72705.63
2022-08-17T12:28:35.001Z,72699.84
2022-08-17T12:31:04.510Z,72684.47
2022-08-17T12:33:31.948Z,72665.22
2022-08-17T12:36:03.153Z,72655.59
2022-08-17T12:38:34.760Z,72642.09
2022-08-17T12:41:24.769Z,72636.34
2022-08-17T12:44:23.267Z,72611.31
2022-08-17T12:47:07.633Z,72676.75
2022-08-17T12:49:38.147Z,72730.66
2022-08-17T12:52:07.307Z,72699.84
2022-08-17T12:54:54.463Z,72669.06
2022-08-17T12:57:33.848Z,72719.09
2022-08-17T13:00:09.522Z,72676.75
2022-08-17T13:02:47.040Z,72688.31
2022-08-17T13:05:27.691Z,72659.44
2022-08-17T13:07:57.293Z,72672.91
2022-08-17T13:10:33.584Z,72661.34
2022-08-17T13:13:17.666Z,72638.25
2022-08-17T13:15:54.719Z,72669.06
2022-08-17T13:18:38.863Z,72719.09
2022-08-17T13:21:27.480Z,72703.69
2022-08-17T13:24:03.615Z,72684.47
2022-08-17T13:26:51.480Z,72676.75
2022-08-17T13:29:38.757Z,72649.81
2022-08-17T13:32:13.020Z,72634.41
2022-08-17T13:35:08.284Z,72638.25
2022-08-17T13:37:34.757Z,72649.81
2022-08-17T13:40:10.288Z,72659.44
2022-08-17T13:42:52.966Z,72642.09
2022-08-17T13:45:35.176Z,72615.16
2022-08-17T13:48:15.889Z,72669.06
2022-08-17T13:50:56.987Z,72642.09
2022-08-17T13:53:32.977Z,72669.06
2022-08-17T13:56:37.621Z,72665.22
2022-08-17T13:58:57.783Z,72665.22
2022-08-17T14:01:41.984Z,72669.06
2022-08-17T14:04:21.830Z,72665.22
2022-08-17T14:07:23.108Z,72696.00
2022-08-17T14:09:59.267Z,72665.22
2022-08-17T14:12:28.595Z,72690.22
2022-08-17T14:14:56.529Z,72699.84
2022-08-17T14:17:26.961Z,72699.84
2022-08-17T14:19:53.783Z,72728.72
2022-08-17T14:22:33.224Z,72721.03
2022-08-17T14:25:01.750Z,72703.69
2022-08-17T14:27:31.799Z,72692.16
2022-08-17T14:29:58.636Z,72692.16
2022-08-17T14:32:29.613Z,72672.91
2022-08-17T14:34:57.922Z,72703.69
2022-08-17T14:37:28.237Z,72757.59
2022-08-17T14:40:00.337Z,72746.06
2022-08-17T14:42:32.873Z,72744.13
2022-08-17T14:45:06.220Z,72742.19
2022-08-17T14:47:53.818Z,72742.19
2022-08-17T14:50:23.223Z,72736.44
2022-08-17T14:52:57.932Z,72738.34
2022-08-17T14:55:25.531Z,72830.75
2022-08-17T14:57:52.857Z,72846.16
2022-08-17T15:00:22.787Z,72821.13
2022-08-17T15:03:00.433Z,72796.09
2022-08-17T15:05:31.868Z,72815.34
2022-08-17T15:08:01.324Z,72813.41
2022-08-17T15:10:36.959Z,72824.97
2022-08-17T15:13:15.952Z,72838.44
2022-08-17T15:15:43.702Z,72824.97
2022-08-17T15:18:14.381Z,72815.34
2022-08-17T15:20:42.130Z,72803.78
2022-08-17T15:23:13.194Z,72805.72
2022-08-17T15:25:40.672Z,72817.28
2022-08-17T15:28:12.522Z,72826.91
2022-08-17T15:30:45.015Z,72838.44
2022-08-17T15:33:18.281Z,72832.66
2022-08-17T15:35:53.613Z,72850.00
2022-08-17T15:38:21.059Z,72853.84
2022-08-17T15:40:50.894Z,72857.69
2022-08-17T15:43:27.940Z,72869.25
2022-08-17T15:46:00.963Z,72873.09
2022-08-17T15:48:57.135Z,72907.75
2022-08-17T15:51:33.059Z,72903.91
2022-08-17T15:54:19.377Z,72905.81
2022-08-17T15:56:50.857Z,72919.28
2022-08-17T15:59:17.839Z,72921.22
2022-08-17T16:03:14.688Z,72927.00
2022-08-17T16:04:31.928Z,72940.47
2022-08-17T16:06:59.670Z,72957.78
2022-08-17T16:09:26.484Z,72977.03
2022-08-17T16:11:55.306Z,72996.28
2022-08-17T16:14:24.088Z,73017.47
2022-08-17T16:16:51.688Z,73034.78
2022-08-17T16:19:18.485Z,73059.81
2022-08-17T16:21:45.284Z,73059.81
2022-08-17T16:24:12.849Z,73067.53
2022-08-17T16:26:42.486Z,73063.66
2022-08-17T16:29:09.819Z,73063.66
2022-08-17T16:31:37.750Z,73061.75
2022-08-17T16:34:16.913Z,73061.75
2022-08-17T16:36:51.786Z,73067.53
2022-08-17T16:39:29.426Z,73077.16
2022-08-17T16:41:57.309Z,73096.41
2022-08-17T16:44:25.881Z,73111.78
2022-08-17T16:46:52.731Z,73125.28
2022-08-17T16:49:31.572Z,73129.13
2022-08-17T16:52:03.778Z,73131.03
2022-08-17T16:54:30.709Z,73138.75
2022-08-17T16:56:57.436Z,73142.59
2022-08-17T16:59:39.402Z,73150.28
2022-08-17T17:02:13.278Z,73163.78
2022-08-17T17:04:49.375Z,73181.09
2022-08-17T17:07:40.559Z,73192.66
2022-08-17T17:10:15.172Z,73208.06
2022-08-17T17:13:01.985Z,73227.31
2022-08-17T17:15:43.431Z,73229.22
2022-08-17T17:18:12.705Z,73227.31
2022-08-17T17:21:00.436Z,73242.69
2022-08-17T17:23:48.584Z,73250.41
2022-08-17T17:26:44.940Z,73258.09
2022-08-17T17:29:47.891Z,73275.44
2022-08-17T17:32:39.887Z,73302.38
2022-08-17T17:35:25.472Z,73331.25
2022-08-17T17:37:57.621Z,73358.22
2022-08-17T17:40:43.350Z,73379.41
2022-08-17T17:43:37.846Z,73402.50
2022-08-17T17:46:27.219Z,73419.81
2022-08-17T17:48:57.057Z,73444.84
2022-08-17T17:52:06.625Z,73467.97
2022-08-17T17:54:56.265Z,73485.28
2022-08-17T17:57:38.765Z,73512.22
2022-08-17T18:00:22.435Z,73537.25
2022-08-17T18:03:21.539Z,73560.38
2022-08-17T18:06:00.613Z,73583.47
2022-08-17T18:08:33.990Z,73604.66
2022-08-17T18:11:35.227Z,73637.38
2022-08-17T18:14:20.292Z,73658.56
2022-08-17T18:16:56.436Z,73681.66
2022-08-17T18:19:26.678Z,73708.63
2022-08-17T18:22:06.813Z,73735.59
2022-08-17T18:24:40.145Z,73750.97
2022-08-17T18:27:25.654Z,73774.09
2022-08-17T18:29:55.971Z,73781.78
2022-08-17T18:32:22.858Z,73801.03
2022-08-17T18:35:09.845Z,73812.59
2022-08-17T18:38:20.041Z,73833.78
2022-08-17T18:40:58.205Z,73839.56
2022-08-17T18:43:44.161Z,73851.09
2022-08-17T18:46:28.575Z,73847.25
2022-08-17T18:49:02.961Z,73851.09
2022-08-17T18:51:42.755Z,73839.56
2022-08-17T18:54:19.162Z,73843.41
2022-08-17T18:56:52.758Z,73854.97
2022-08-17T18:59:52.133Z,73880.00
2022-08-17T19:02:44.734Z,73893.47
2022-08-17T19:05:35.743Z,73912.72
2022-08-17T19:08:17.897Z,73922.34
2022-08-17T19:10:47.449Z,73928.13
2022-08-17T19:13:24.923Z,73937.75
2022-08-17T19:16:14.945Z,73957.00
2022-08-17T19:19:01.927Z,73962.78
2022-08-17T19:21:42.934Z,73993.59
2022-08-17T19:24:23.128Z,74003.22
2022-08-17T19:27:00.538Z,74018.63
2022-08-17T19:29:39.121Z,74035.97
2022-08-17T19:32:10.872Z,74057.13
2022-08-17T19:34:39.347Z,74051.38
2022-08-17T19:37:17.603Z,74051.38
2022-08-17T19:40:35.157Z,74053.28
2022-08-17T19:43:06.565Z,74072.53
2022-08-17T19:45:56.193Z,74074.47
2022-08-17T19:49:16.015Z,74082.16
2022-08-17T19:52:44.366Z,74087.94
2022-08-17T19:55:48.390Z,74099.50
2022-08-17T19:58:46.872Z,74101.44
2022-08-17T20:01:21.283Z,74097.59
2022-08-17T20:03:58.107Z,74084.09
2022-08-17T20:06:28.999Z,74086.03
2022-08-17T20:09:15.314Z,74089.88
2022-08-17T20:11:54.820Z,74101.44
2022-08-17T20:14:28.417Z,74114.91
2022-08-17T20:16:59.295Z,74130.31
2022-08-17T20:19:49.919Z,74147.66
2022-08-17T20:22:52.085Z,74166.91
2022-08-17T20:25:30.934Z,74176.53
2022-08-17T20:28:17.266Z,74178.47
2022-08-17T20:30:44.313Z,74193.88
2022-08-17T20:33:34.171Z,74199.63
2022-08-17T20:36:19.719Z,74207.34
2022-08-17T20:38:55.439Z,74213.13
2022-08-17T20:41:24.088Z,74211.19
2022-08-17T20:44:03.421Z,74213.13
2022-08-17T20:46:36.229Z,74216.97
2022-08-17T20:49:08.964Z,74216.97
2022-08-17T20:52:07.820Z,74224.69
2022-08-17T20:55:03.010Z,74226.59
2022-08-17T20:57:35.796Z,74224.69
2022-08-17T21:00:25.296Z,74238.16
2022-08-17T21:03:24.471Z,74247.78
2022-08-17T21:06:00.316Z,74259.34
2022-08-17T21:08:29.753Z,74280.53
2022-08-17T21:10:58.427Z,74288.22
2022-08-17T21:13:40.804Z,74305.56
2022-08-17T21:16:24.410Z,74320.97
2022-08-17T21:19:24.473Z,74334.44
2022-08-17T21:22:12.791Z,74346.00
2022-08-17T21:24:42.619Z,74359.47
2022-08-17T21:27:50.092Z,74371.03
2022-08-17T21:30:29.019Z,74382.59
2022-08-17T21:33:17.361Z,74396.06
2022-08-17T21:36:17.286Z,74417.25
2022-08-17T21:38:57.406Z,74428.81
2022-08-17T21:41:34.892Z,74436.50
2022-08-17T21:44:18.172Z,74432.66
2022-08-17T21:46:51.752Z,74432.66
2022-08-17T21:49:25.290Z,74432.66
2022-08-17T21:51:55.125Z,74440.34
2022-08-17T21:54:38.859Z,74446.13
2022-08-17T21:57:14.899Z,74457.69
2022-08-17T21:59:44.198Z,74463.47
2022-08-17T22:02:24.780Z,74478.88
2022-08-17T22:05:06.760Z,74498.13
2022-08-17T22:08:18.297Z,74509.69
2022-08-17T22:10:48.969Z,74505.84
2022-08-17T22:13:23.439Z,74505.84
2022-08-17T22:16:15.724Z,74511.63
2022-08-17T22:18:57.998Z,74511.63
2022-08-17T22:21:25.497Z,74525.09
2022-08-17T22:24:06.809Z,74542.44
2022-08-17T22:27:00.108Z,74550.13
2022-08-17T22:29:58.065Z,74548.22
2022-08-17T22:32:41.940Z,74555.91
2022-08-17T22:35:32.803Z,74571.31
2022-08-17T22:38:18.374Z,74588.66
2022-08-17T22:40:51.153Z,74598.28
2022-08-17T22:43:26.008Z,74602.13
2022-08-17T22:45:56.099Z,74607.91
2022-08-17T22:48:27.221Z,74613.69
2022-08-17T22:51:14.662Z,74619.47
2022-08-17T22:54:12.807Z,74623.31
2022-08-17T22:57:06.776Z,74625.25
2022-08-17T22:59:46.465Z,74636.81
2022-08-17T23:02:19.617Z,74631.03
2022-08-17T23:04:53.135Z,74629.09
2022-08-17T23:07:22.977Z,74654.13
2022-08-17T23:09:51.862Z,74657.97
2022-08-17T23:12:24.061Z,74665.69
2022-08-17T23:14:58.566Z,74665.69
2022-08-17T23:17:25.255Z,74679.16
2022-08-17T23:19:52.163Z,74679.16
2022-08-17T23:22:18.915Z,74679.16
2022-08-17T23:24:49.069Z,74679.16
2022-08-17T23:27:17.747Z,74692.66
2022-08-17T23:29:45.192Z,74702.28
2022-08-17T23:32:15.057Z,74713.84
2022-08-17T23:34:44.304Z,74713.84
2022-08-17T23:37:12.049Z,74709.97
2022-08-17T23:39:39.956Z,74725.41
2022-08-17T23:42:09.162Z,74733.09
2022-08-17T23:44:37.761Z,74735.03
2022-08-17T23:47:05.721Z,74736.94
2022-08-17T23:49:32.558Z,74740.81
2022-08-17T23:52:01.459Z,74735.03
2022-08-17T23:54:43.722Z,74731.16
2022-08-17T23:57:12.905Z,74729.25
2022-08-17T23:59:40.453Z,74727.31
